Time;durP1;ratioP1;P1;durP2;ratioP2;P2;SDS_P1;SDS_P2;PMS_P1;PMS_P2;Temp;Humidity;BMP_temperature;BMP_pressure;BME280_temperature;BME280_humidity;BME280_pressure;Samples;Min_cycle;Max_cycle;Signal;HPM_P1;HPM_P2
2022/01/01 00:02:25;;;;;;;;;;;10.80;99.90;;;;;;5094592;28;19924;-77
2022/01/01 00:05:08;;;;;;;;;;;10.80;99.90;;;;;;5095171;28;19931;-77
2022/01/01 00:07:35;;;;;;;;;;;10.80;99.90;;;;;;5102942;28;19930;-77
2022/01/01 00:10:03;;;;;;;;;;;10.70;99.90;;;;;;5094208;28;19920;-77
2022/01/01 00:12:29;;;;;;;;;;;10.70;99.90;;;;;;5109012;28;19927;-77
2022/01/01 00:14:58;;;;;;;;;;;10.70;99.90;;;;;;5110534;28;19920;-77
2022/01/01 00:17:26;;;;;;;;;;;10.70;99.90;;;;;;5095795;28;20132;-77
2022/01/01 00:19:53;;;;;;;;;;;10.70;99.90;;;;;;5094033;28;19920;-77
2022/01/01 00:22:19;;;;;;;;;;;10.70;99.90;;;;;;5094856;28;20404;-77
2022/01/01 00:24:46;;;;;;;;;;;10.80;99.90;;;;;;5098187;28;19970;-77
2022/01/01 00:27:13;;;;;;;;;;;10.80;99.90;;;;;;5100558;28;20011;-77
2022/01/01 00:29:39;;;;;;;;;;;10.80;99.90;;;;;;5093832;28;19959;-77
2022/01/01 00:32:06;;;;;;;;;;;10.80;99.90;;;;;;5106808;28;19930;-77
2022/01/01 00:34:34;;;;;;;;;;;10.80;99.90;;;;;;5095245;28;20022;-77
2022/01/01 00:37:01;;;;;;;;;;;10.70;99.90;;;;;;5095282;28;19920;-77
2022/01/01 00:39:28;;;;;;;;;;;10.70;99.90;;;;;;5098813;28;19977;-77
2022/01/01 00:41:57;;;;;;;;;;;10.70;99.90;;;;;;5103032;28;20204;-77
2022/01/01 00:44:24;;;;;;;;;;;10.70;99.90;;;;;;5100666;28;19924;-77
2022/01/01 00:46:51;;;;;;;;;;;10.60;99.90;;;;;;5093408;28;19954;-77
2022/01/01 00:49:18;;;;;;;;;;;10.60;99.90;;;;;;5106265;28;20011;-77
2022/01/01 00:51:44;;;;;;;;;;;10.60;99.90;;;;;;5094437;28;20435;-77
2022/01/01 00:54:11;;;;;;;;;;;10.60;99.90;;;;;;5094815;28;20374;-78
2022/01/01 00:56:38;;;;;;;;;;;10.70;99.90;;;;;;5095228;27;19930;-77
2022/01/01 00:59:07;;;;;;;;;;;10.60;99.90;;;;;;5102417;27;19931;-78
2022/01/01 01:01:34;;;;;;;;;;;10.60;99.90;;;;;;5094648;28;20426;-78
2022/01/01 01:04:01;;;;;;;;;;;10.60;99.90;;;;;;5096798;28;19924;-78
2022/01/01 01:06:27;;;;;;;;;;;10.70;99.90;;;;;;5099566;28;19924;-77
2022/01/01 01:08:58;;;;;;;;;;;10.70;99.90;;;;;;5109189;28;19923;-78
2022/01/01 01:11:25;;;;;;;;;;;10.70;99.90;;;;;;5109761;28;19947;-77
2022/01/01 01:13:59;;;;;;;;;;;10.70;99.90;;;;;;5114696;28;19938;-78
2022/01/01 01:16:27;;;;;;;;;;;10.70;99.90;;;;;;5107269;28;19935;-77
2022/01/01 01:18:54;;;;;;;;;;;10.70;99.90;;;;;;5108587;28;19924;-77
2022/01/01 01:21:22;;;;;;;;;;;10.70;99.90;;;;;;5094685;28;19931;-77
2022/01/01 01:23:49;;;;;;;;;;;10.70;99.90;;;;;;5094494;28;19934;-77
2022/01/01 01:26:18;;;;;;;;;;;10.60;99.90;;;;;;5097266;28;20028;-77
2022/01/01 01:28:50;;;;;;;;;;;10.60;99.90;;;;;;5094993;28;20349;-77
2022/01/01 01:31:17;;;;;;;;;;;10.60;99.90;;;;;;5111162;27;19934;-78
2022/01/01 01:33:46;;;;;;;;;;;10.50;99.90;;;;;;5103760;27;19954;-77
2022/01/01 01:36:13;;;;;;;;;;;10.50;99.90;;;;;;5104268;27;20010;-77
2022/01/01 01:38:40;;;;;;;;;;;10.50;99.90;;;;;;5109262;28;19923;-78
2022/01/01 01:41:07;;;;;;;;;;;10.50;99.90;;;;;;5109480;27;19927;-78
2022/01/01 01:43:34;;;;;;;;;;;10.50;99.90;;;;;;5104760;27;19932;-78
2022/01/01 01:46:05;;;;;;;;;;;10.50;99.90;;;;;;5116621;27;19923;-78
2022/01/01 01:48:33;;;;;;;;;;;10.50;99.90;;;;;;5112790;28;19931;-77
2022/01/01 01:51:00;;;;;;;;;;;10.50;99.90;;;;;;5102210;28;19931;-78
2022/01/01 01:53:27;;;;;;;;;;;10.50;99.90;;;;;;5096362;28;19924;-78
2022/01/01 01:55:54;;;;;;;;;;;10.50;99.90;;;;;;5106326;28;19924;-78
2022/01/01 01:58:22;;;;;;;;;;;10.40;99.90;;;;;;5098705;28;19924;-79
2022/01/01 02:03:18;;;;;;;;;;;10.50;99.90;;;;;;5104505;28;19958;-78
2022/01/01 02:05:45;;;;;;;;;;;10.50;99.90;;;;;;5093404;28;19924;-77
2022/01/01 02:08:12;;;;;;;;;;;10.50;99.90;;;;;;5114300;27;20090;-77
2022/01/01 02:10:39;;;;;;;;;;;10.50;99.90;;;;;;5115106;27;19924;-77
2022/01/01 02:13:18;;;;;;;;;;;10.50;99.90;;;;;;5093161;27;19927;-78
2022/01/01 02:18:18;;;;;;;;;;;10.50;99.90;;;;;;5099934;28;19924;-78
2022/01/01 02:20:49;;;;;;;;;;;10.50;99.90;;;;;;5099956;28;19924;-78
2022/01/01 02:23:22;;;;;;;;;;;10.40;99.90;;;;;;5101460;28;19928;-79
2022/01/01 02:25:52;;;;;;;;;;;10.40;99.90;;;;;;5091972;28;20351;-78
2022/01/01 02:28:20;;;;;;;;;;;10.30;99.90;;;;;;5102330;28;19970;-77
2022/01/01 02:30:47;;;;;;;;;;;10.30;99.90;;;;;;5101940;27;20014;-78
2022/01/01 02:33:14;;;;;;;;;;;10.30;99.90;;;;;;5092866;28;19967;-78
2022/01/01 02:35:41;;;;;;;;;;;10.20;99.90;;;;;;5094560;28;19924;-77
2022/01/01 02:38:08;;;;;;;;;;;10.20;99.90;;;;;;5123722;27;20018;-77
2022/01/01 02:40:36;;;;;;;;;;;10.20;99.90;;;;;;5107417;28;19930;-77
2022/01/01 02:43:03;;;;;;;;;;;10.20;99.90;;;;;;5099803;28;19919;-78
2022/01/01 02:45:30;;;;;;;;;;;10.20;99.90;;;;;;5104466;28;19920;-78
2022/01/01 02:48:00;;;;;;;;;;;10.20;99.90;;;;;;5091469;28;20393;-78
2022/01/01 02:50:26;;;;;;;;;;;10.10;99.90;;;;;;5094168;28;20445;-78
2022/01/01 02:52:53;;;;;;;;;;;10.10;99.90;;;;;;5099813;28;19927;-78
2022/01/01 02:55:22;;;;;;;;;;;10.10;99.90;;;;;;5091629;28;19967;-79
2022/01/01 02:57:48;;;;;;;;;;;10.10;99.90;;;;;;5103782;28;19920;-78
2022/01/01 03:00:15;;;;;;;;;;;10.10;99.90;;;;;;5091894;28;19920;-78
2022/01/01 03:02:45;;;;;;;;;;;10.10;99.90;;;;;;5100011;28;20022;-78
2022/01/01 03:05:12;;;;;;;;;;;10.10;99.90;;;;;;5102398;27;20003;-78
2022/01/01 03:07:39;;;;;;;;;;;10.10;99.90;;;;;;5098904;28;19920;-78
2022/01/01 03:10:06;;;;;;;;;;;10.10;99.90;;;;;;5111625;28;19920;-78
2022/01/01 03:12:32;;;;;;;;;;;10.10;99.90;;;;;;5100123;27;20023;-78
2022/01/01 03:14:59;;;;;;;;;;;10.10;99.90;;;;;;5110310;28;20620;-78
2022/01/01 03:17:26;;;;;;;;;;;10.00;99.90;;;;;;5095561;28;19920;-78
2022/01/01 03:19:52;;;;;;;;;;;10.00;99.90;;;;;;5096542;28;20457;-78
2022/01/01 03:22:19;;;;;;;;;;;9.90;99.90;;;;;;5110657;28;20717;-77
2022/01/01 03:24:46;;;;;;;;;;;9.90;99.90;;;;;;5107331;28;20378;-78
2022/01/01 03:27:13;;;;;;;;;;;10.00;99.90;;;;;;5101225;28;20006;-78
2022/01/01 03:29:39;;;;;;;;;;;9.90;99.90;;;;;;5114465;27;19920;-77
2022/01/01 03:32:06;;;;;;;;;;;9.90;99.90;;;;;;5115374;28;20002;-79
2022/01/01 03:34:33;;;;;;;;;;;9.90;99.90;;;;;;5109861;28;19963;-79
2022/01/01 03:36:59;;;;;;;;;;;9.90;99.90;;;;;;5095075;28;19924;-79
2022/01/01 03:39:27;;;;;;;;;;;9.90;99.90;;;;;;5095633;28;19930;-79
2022/01/01 03:41:54;;;;;;;;;;;9.90;99.90;;;;;;5095514;28;19924;-78
2022/01/01 03:44:20;;;;;;;;;;;9.90;99.90;;;;;;5122397;27;19919;-79
2022/01/01 03:46:47;;;;;;;;;;;9.90;99.90;;;;;;5108115;27;20012;-78
2022/01/01 03:49:14;;;;;;;;;;;9.90;99.90;;;;;;5098649;28;19919;-78
2022/01/01 03:51:41;;;;;;;;;;;9.90;99.90;;;;;;5096010;28;19927;-78
2022/01/01 03:54:08;;;;;;;;;;;9.90;99.90;;;;;;5095725;28;19924;-79
2022/01/01 03:56:37;;;;;;;;;;;9.90;99.90;;;;;;5100945;28;19930;-79
2022/01/01 03:59:04;;;;;;;;;;;9.90;99.90;;;;;;5097658;28;20006;-78
2022/01/01 04:01:31;;;;;;;;;;;9.90;99.90;;;;;;5095935;28;19920;-78
2022/01/01 04:03:58;;;;;;;;;;;9.90;99.90;;;;;;5106634;28;19920;-79
2022/01/01 04:06:24;;;;;;;;;;;9.90;99.90;;;;;;5114709;28;19920;-79
2022/01/01 04:08:53;;;;;;;;;;;9.90;99.90;;;;;;5113669;28;19919;-79
2022/01/01 04:11:21;;;;;;;;;;;9.90;99.90;;;;;;5105133;28;19926;-78
2022/01/01 04:13:49;;;;;;;;;;;9.90;99.90;;;;;;5111594;28;20001;-78
2022/01/01 04:16:17;;;;;;;;;;;9.90;99.90;;;;;;5107970;28;19991;-77
2022/01/01 04:18:47;;;;;;;;;;;9.90;99.90;;;;;;5103114;28;19920;-76
2022/01/01 04:21:16;;;;;;;;;;;9.90;99.90;;;;;;5102413;28;20550;-76
2022/01/01 04:23:43;;;;;;;;;;;9.90;99.90;;;;;;5097662;28;19920;-77
2022/01/01 04:26:10;;;;;;;;;;;9.90;99.90;;;;;;5104753;28;19920;-77
2022/01/01 04:28:37;;;;;;;;;;;9.90;99.90;;;;;;5099662;28;19970;-78
2022/01/01 04:31:04;;;;;;;;;;;9.90;99.90;;;;;;5096743;28;19926;-77
2022/01/01 04:33:31;;;;;;;;;;;9.90;99.90;;;;;;5092355;28;20402;-78
2022/01/01 04:35:57;;;;;;;;;;;9.90;99.90;;;;;;5109271;27;19919;-78
2022/01/01 04:38:35;;;;;;;;;;;9.90;99.90;;;;;;5104595;27;20010;-77
2022/01/01 04:41:03;;;;;;;;;;;9.90;99.90;;;;;;5094620;28;20359;-78
2022/01/01 04:43:33;;;;;;;;;;;10.00;99.90;;;;;;5098109;28;20002;-78
2022/01/01 04:45:59;;;;;;;;;;;10.00;99.90;;;;;;5096539;28;19986;-78
2022/01/01 04:48:37;;;;;;;;;;;10.00;99.90;;;;;;5109072;28;19920;-77
2022/01/01 04:51:06;;;;;;;;;;;10.00;99.90;;;;;;5105310;28;19927;-77
2022/01/01 04:53:34;;;;;;;;;;;9.90;99.90;;;;;;5110114;28;19920;-77
2022/01/01 04:56:06;;;;;;;;;;;10.00;99.90;;;;;;5095966;28;20289;-78
2022/01/01 04:58:34;;;;;;;;;;;10.00;99.90;;;;;;5093836;28;20435;-77
2022/01/01 05:01:00;;;;;;;;;;;10.00;99.90;;;;;;5111522;28;19929;-77
2022/01/01 05:03:30;;;;;;;;;;;10.00;99.90;;;;;;5109812;28;19920;-77
2022/01/01 05:05:57;;;;;;;;;;;10.00;99.90;;;;;;5113226;28;19930;-78
2022/01/01 05:08:23;;;;;;;;;;;10.00;99.90;;;;;;5113214;28;19920;-77
2022/01/01 05:10:50;;;;;;;;;;;9.90;99.90;;;;;;5104582;28;19927;-77
2022/01/01 05:13:19;;;;;;;;;;;10.00;99.90;;;;;;5103661;28;20342;-77
2022/01/01 05:15:46;;;;;;;;;;;9.90;99.90;;;;;;5104322;27;19959;-77
2022/01/01 05:18:14;;;;;;;;;;;10.00;99.90;;;;;;5103083;28;20011;-77
2022/01/01 05:20:41;;;;;;;;;;;10.00;99.90;;;;;;5093032;28;20010;-77
2022/01/01 05:23:08;;;;;;;;;;;9.90;99.90;;;;;;5093207;28;19959;-78
2022/01/01 05:25:35;;;;;;;;;;;10.00;99.90;;;;;;5101398;28;20442;-77
2022/01/01 05:28:04;;;;;;;;;;;9.90;99.90;;;;;;5108406;28;19919;-78
2022/01/01 05:30:30;;;;;;;;;;;10.00;99.90;;;;;;5099712;27;20003;-77
2022/01/01 05:33:00;;;;;;;;;;;10.00;99.90;;;;;;5121854;27;19988;-77
2022/01/01 05:35:30;;;;;;;;;;;10.00;99.90;;;;;;5109913;28;20011;-77
2022/01/01 05:37:57;;;;;;;;;;;10.00;99.90;;;;;;5092721;28;19930;-77
2022/01/01 05:40:43;;;;;;;;;;;9.90;99.90;;;;;;5102811;28;19919;-78
2022/01/01 05:43:30;;;;;;;;;;;9.90;99.90;;;;;;5101237;28;20453;-77
2022/01/01 05:45:57;;;;;;;;;;;10.00;99.90;;;;;;5116759;27;20401;-77
2022/01/01 05:48:24;;;;;;;;;;;9.90;99.90;;;;;;5108098;28;19926;-78
2022/01/01 05:50:50;;;;;;;;;;;10.00;99.90;;;;;;5105260;27;20427;-78
2022/01/01 05:53:18;;;;;;;;;;;9.90;99.90;;;;;;5114781;27;20013;-79
2022/01/01 05:55:48;;;;;;;;;;;9.90;99.90;;;;;;5094765;27;20044;-78
2022/01/01 05:58:15;;;;;;;;;;;9.90;99.90;;;;;;5093449;28;20004;-78
2022/01/01 06:00:42;;;;;;;;;;;9.90;99.90;;;;;;5105225;28;20393;-78
2022/01/01 06:03:09;;;;;;;;;;;9.90;99.90;;;;;;5096104;28;20432;-79
2022/01/01 06:05:36;;;;;;;;;;;9.80;99.90;;;;;;5094956;28;20426;-78
2022/01/01 06:08:02;;;;;;;;;;;9.70;99.90;;;;;;5101163;28;19919;-78
2022/01/01 06:10:29;;;;;;;;;;;9.80;99.90;;;;;;5100085;28;19920;-77
2022/01/01 06:12:56;;;;;;;;;;;9.70;99.90;;;;;;5106756;28;19920;-77
2022/01/01 06:15:23;;;;;;;;;;;9.60;99.90;;;;;;5098701;28;19920;-77
2022/01/01 06:17:52;;;;;;;;;;;9.40;99.90;;;;;;5107457;28;20564;-78
2022/01/01 06:20:22;;;;;;;;;;;9.30;99.90;;;;;;5097950;27;19999;-77
2022/01/01 06:23:02;;;;;;;;;;;9.20;99.90;;;;;;5101548;28;19920;-78
2022/01/01 06:25:29;;;;;;;;;;;9.10;99.90;;;;;;5105070;28;19955;-78
2022/01/01 06:27:55;;;;;;;;;;;9.00;99.90;;;;;;5103229;28;20009;-78
2022/01/01 06:30:22;;;;;;;;;;;9.00;99.90;;;;;;5107107;28;19935;-78
2022/01/01 06:32:51;;;;;;;;;;;9.00;99.90;;;;;;5111186;28;19959;-78
2022/01/01 06:35:19;;;;;;;;;;;9.00;99.90;;;;;;5104895;28;19920;-78
2022/01/01 06:37:48;;;;;;;;;;;8.90;99.90;;;;;;5093147;28;19920;-78
2022/01/01 06:40:15;;;;;;;;;;;9.00;99.90;;;;;;5089716;28;19998;-78
2022/01/01 06:42:42;;;;;;;;;;;8.90;99.90;;;;;;5101444;28;19920;-78
2022/01/01 06:45:08;;;;;;;;;;;8.90;99.90;;;;;;5120385;28;19926;-79
2022/01/01 06:47:35;;;;;;;;;;;8.90;99.90;;;;;;5117161;27;20882;-77
2022/01/01 06:50:02;;;;;;;;;;;8.80;99.90;;;;;;5101249;27;20013;-78
2022/01/01 06:52:29;;;;;;;;;;;8.80;99.90;;;;;;5096641;28;20265;-79
2022/01/01 06:54:58;;;;;;;;;;;8.90;99.90;;;;;;5096291;28;19927;-78
2022/01/01 06:57:25;;;;;;;;;;;8.90;99.90;;;;;;5104346;28;19926;-78
2022/01/01 06:59:55;;;;;;;;;;;8.90;99.90;;;;;;5096722;28;19926;-78
2022/01/01 07:02:21;;;;;;;;;;;8.90;99.90;;;;;;5095154;28;24088;-78
2022/01/01 07:04:48;;;;;;;;;;;9.00;99.90;;;;;;5106092;28;19932;-77
2022/01/01 07:07:15;;;;;;;;;;;9.00;99.90;;;;;;5098916;28;19930;-80
2022/01/01 07:09:41;;;;;;;;;;;9.10;99.90;;;;;;5099179;28;20023;-80
2022/01/01 07:12:08;;;;;;;;;;;9.10;99.90;;;;;;5098262;28;19950;-80
2022/01/01 07:14:35;;;;;;;;;;;9.20;99.90;;;;;;5097210;28;19928;-80
2022/01/01 07:17:02;;;;;;;;;;;9.20;99.90;;;;;;5107303;28;20010;-79
2022/01/01 07:19:34;;;;;;;;;;;9.20;99.90;;;;;;5096132;28;19924;-79
2022/01/01 07:22:01;;;;;;;;;;;9.10;99.90;;;;;;5106168;27;20010;-80
2022/01/01 07:24:28;;;;;;;;;;;9.10;99.90;;;;;;5113755;27;19928;-80
2022/01/01 07:26:55;;;;;;;;;;;9.10;99.90;;;;;;5096541;28;20019;-80
2022/01/01 07:29:22;;;;;;;;;;;9.10;99.90;;;;;;5113570;28;19930;-80
2022/01/01 07:31:55;;;;;;;;;;;9.10;99.90;;;;;;5094890;28;19924;-80
2022/01/01 07:34:22;;;;;;;;;;;9.10;99.90;;;;;;5096686;28;19973;-80
2022/01/01 07:36:55;;;;;;;;;;;9.20;99.90;;;;;;5099339;28;20023;-80
2022/01/01 07:39:21;;;;;;;;;;;9.30;99.90;;;;;;5124622;27;19924;-80
2022/01/01 07:41:48;;;;;;;;;;;9.30;99.90;;;;;;5109531;27;19971;-80
2022/01/01 07:44:15;;;;;;;;;;;9.40;99.90;;;;;;5114651;27;19924;-80
2022/01/01 07:47:05;;;;;;;;;;;9.40;99.90;;;;;;5107957;28;19924;-80
2022/01/01 07:49:31;;;;;;;;;;;9.30;99.90;;;;;;5100995;28;20022;-81
2022/01/01 07:51:58;;;;;;;;;;;9.30;99.90;;;;;;5102609;28;20002;-80
2022/01/01 07:54:25;;;;;;;;;;;9.30;99.90;;;;;;5110666;28;19985;-80
2022/01/01 07:56:52;;;;;;;;;;;9.30;99.90;;;;;;5103937;27;20461;-80
2022/01/01 07:59:18;;;;;;;;;;;9.30;99.90;;;;;;5102849;27;19920;-80
2022/01/01 08:01:45;;;;;;;;;;;9.40;99.90;;;;;;5108253;27;19927;-80
2022/01/01 08:04:12;;;;;;;;;;;9.40;99.90;;;;;;5094288;28;19920;-81
2022/01/01 08:06:39;;;;;;;;;;;9.40;99.90;;;;;;5098240;28;19919;-81
2022/01/01 08:09:06;;;;;;;;;;;9.40;99.90;;;;;;5106502;27;20006;-80
2022/01/01 08:11:32;;;;;;;;;;;9.40;99.90;;;;;;5109315;27;19942;-80
2022/01/01 08:13:59;;;;;;;;;;;9.50;99.90;;;;;;5120214;27;19920;-80
2022/01/01 08:16:26;;;;;;;;;;;9.50;99.90;;;;;;5095452;28;19924;-80
2022/01/01 08:18:52;;;;;;;;;;;9.50;99.90;;;;;;5104766;28;19924;-81
2022/01/01 08:21:19;;;;;;;;;;;9.60;99.90;;;;;;5109202;28;20935;-81
2022/01/01 08:23:46;;;;;;;;;;;9.70;99.90;;;;;;5095492;28;20023;-81
2022/01/01 08:26:12;;;;;;;;;;;9.70;99.90;;;;;;5096651;28;19920;-80
2022/01/01 08:28:39;;;;;;;;;;;9.70;99.90;;;;;;5093470;28;19953;-80
2022/01/01 08:31:06;;;;;;;;;;;9.80;99.90;;;;;;5096686;28;20393;-81
2022/01/01 08:33:33;;;;;;;;;;;9.90;99.90;;;;;;5096479;28;20373;-81
2022/01/01 08:36:03;;;;;;;;;;;10.00;99.90;;;;;;5096918;28;20010;-81
2022/01/01 08:38:31;;;;;;;;;;;10.00;99.90;;;;;;5094053;28;20274;-81
2022/01/01 08:40:58;;;;;;;;;;;10.10;99.90;;;;;;5093572;28;20019;-80
2022/01/01 08:43:25;;;;;;;;;;;10.10;99.90;;;;;;5107143;27;19920;-80
2022/01/01 08:45:53;;;;;;;;;;;10.10;99.90;;;;;;5097965;28;20018;-80
2022/01/01 08:48:20;;;;;;;;;;;10.10;99.90;;;;;;5104181;27;19927;-80
2022/01/01 08:50:46;;;;;;;;;;;10.20;99.90;;;;;;5101022;28;20358;-80
2022/01/01 08:53:13;;;;;;;;;;;10.20;99.90;;;;;;5100097;28;19951;-80
2022/01/01 08:55:40;;;;;;;;;;;10.30;99.90;;;;;;5094228;28;19920;-80
2022/01/01 08:58:07;;;;;;;;;;;10.30;99.90;;;;;;5101993;28;19920;-80
2022/01/01 09:00:52;;;;;;;;;;;10.40;99.90;;;;;;5101547;28;19955;-80
2022/01/01 09:03:26;;;;;;;;;;;10.30;99.90;;;;;;5093141;28;19999;-81
2022/01/01 09:05:53;;;;;;;;;;;10.40;99.90;;;;;;5111233;27;20455;-80
2022/01/01 09:08:36;;;;;;;;;;;10.40;99.90;;;;;;5103137;27;19950;-81
2022/01/01 09:11:03;;;;;;;;;;;10.50;99.90;;;;;;5100860;28;19992;-80
2022/01/01 09:13:30;;;;;;;;;;;10.60;99.90;;;;;;5102027;28;19938;-80
2022/01/01 09:15:57;;;;;;;;;;;10.70;99.90;;;;;;5101729;28;20010;-80
2022/01/01 09:18:24;;;;;;;;;;;10.90;99.90;;;;;;5092067;28;20018;-80
2022/01/01 09:20:51;;;;;;;;;;;10.90;99.90;;;;;;5102508;28;19927;-80
2022/01/01 09:23:18;;;;;;;;;;;10.90;99.90;;;;;;5106377;28;19919;-81
2022/01/01 09:25:45;;;;;;;;;;;11.00;99.90;;;;;;5103227;28;19926;-80
2022/01/01 09:28:11;;;;;;;;;;;11.10;99.90;;;;;;5102413;28;19928;-79
2022/01/01 09:30:39;;;;;;;;;;;11.10;99.90;;;;;;5104062;28;19920;-80
2022/01/01 09:33:07;;;;;;;;;;;11.20;99.90;;;;;;5106300;28;19920;-80
2022/01/01 09:35:34;;;;;;;;;;;11.30;99.90;;;;;;5102874;28;19923;-80
2022/01/01 09:38:00;;;;;;;;;;;11.50;99.90;;;;;;5096430;28;19928;-80
2022/01/01 09:40:28;;;;;;;;;;;11.60;99.90;;;;;;5087381;28;19923;-80
2022/01/01 09:42:55;;;;;;;;;;;11.60;99.90;;;;;;5106335;27;20042;-79
2022/01/01 09:45:22;;;;;;;;;;;11.50;99.90;;;;;;5098058;28;19975;-80
2022/01/01 09:47:48;;;;;;;;;;;11.60;99.90;;;;;;5112685;27;19929;-80
2022/01/01 09:50:15;;;;;;;;;;;11.60;99.90;;;;;;5088050;27;19931;-80
2022/01/01 09:52:42;;;;;;;;;;;11.50;99.90;;;;;;5088623;28;19972;-79
2022/01/01 09:55:09;;;;;;;;;;;11.50;99.90;;;;;;5090466;28;20009;-80
2022/01/01 09:57:36;;;;;;;;;;;11.60;99.90;;;;;;5096832;27;19923;-80
2022/01/01 10:00:04;;;;;;;;;;;11.60;99.90;;;;;;5095444;28;19920;-80
2022/01/01 10:02:31;;;;;;;;;;;11.60;99.90;;;;;;5092468;28;19931;-80
2022/01/01 10:05:03;;;;;;;;;;;11.70;99.90;;;;;;5102346;27;19930;-79
2022/01/01 10:07:30;;;;;;;;;;;11.80;99.90;;;;;;5109915;27;20007;-79
2022/01/01 10:09:56;;;;;;;;;;;11.80;99.90;;;;;;5089446;28;19996;-79
2022/01/01 10:12:37;;;;;;;;;;;11.90;99.90;;;;;;5100648;27;19919;-79
2022/01/01 10:15:07;;;;;;;;;;;12.00;99.90;;;;;;5098638;28;20450;-79
2022/01/01 10:17:34;;;;;;;;;;;11.90;99.90;;;;;;5101792;28;19924;-79
2022/01/01 10:20:01;;;;;;;;;;;11.90;99.90;;;;;;5091444;28;19927;-79
2022/01/01 10:22:28;;;;;;;;;;;11.90;99.90;;;;;;5094133;28;20014;-78
2022/01/01 10:27:54;;;;;;;;;;;11.80;99.90;;;;;;5095758;27;19919;-79
2022/01/01 10:30:47;;;;;;;;;;;11.70;99.90;;;;;;5101654;27;19920;-79
2022/01/01 10:33:14;;;;;;;;;;;11.70;99.90;;;;;;5100811;28;19927;-79
2022/01/01 10:35:48;;;;;;;;;;;11.70;99.90;;;;;;5108974;28;19920;-79
2022/01/01 10:38:20;;;;;;;;;;;11.70;99.90;;;;;;5101811;27;19920;-78
2022/01/01 10:41:06;;;;;;;;;;;11.70;99.90;;;;;;5114936;27;20007;-79
2022/01/01 10:43:36;;;;;;;;;;;11.50;99.90;;;;;;5107244;28;20010;-79
2022/01/01 10:46:04;;;;;;;;;;;11.50;99.90;;;;;;5102036;28;20006;-79
2022/01/01 10:51:04;;;;;;;;;;;11.70;99.90;;;;;;5099473;27;20046;-79
2022/01/01 10:53:31;;;;;;;;;;;11.50;99.90;;;;;;5104094;28;21042;-79
2022/01/01 10:55:59;;;;;;;;;;;11.40;99.90;;;;;;5095300;28;20374;-79
2022/01/01 10:58:27;;;;;;;;;;;11.40;99.90;;;;;;5093100;28;19920;-79
2022/01/01 11:01:03;;;;;;;;;;;11.30;99.90;;;;;;5099702;28;19959;-79
2022/01/01 11:03:35;;;;;;;;;;;11.30;99.90;;;;;;5092115;28;20353;-79
2022/01/01 11:06:17;;;;;;;;;;;11.40;99.90;;;;;;5094216;28;19920;-79
2022/01/01 11:08:46;;;;;;;;;;;11.30;99.90;;;;;;5083554;28;19927;-79
2022/01/01 11:11:13;;;;;;;;;;;11.30;99.90;;;;;;5105216;28;20309;-79
2022/01/01 11:13:41;;;;;;;;;;;11.20;99.90;;;;;;5101075;28;20003;-79
2022/01/01 11:16:08;;;;;;;;;;;11.30;99.90;;;;;;5091861;28;19927;-79
2022/01/01 11:18:35;;;;;;;;;;;11.20;99.90;;;;;;5096090;28;20451;-79
2022/01/01 11:21:03;;;;;;;;;;;11.20;99.90;;;;;;5103984;28;19919;-79
2022/01/01 11:23:31;;;;;;;;;;;11.30;99.90;;;;;;5100700;28;19957;-79
2022/01/01 11:25:58;;;;;;;;;;;11.30;99.90;;;;;;5096156;28;20006;-79
2022/01/01 11:28:25;;;;;;;;;;;11.30;99.90;;;;;;5105524;27;19919;-79
2022/01/01 11:30:58;;;;;;;;;;;11.50;99.90;;;;;;5106516;28;20354;-79
2022/01/01 11:33:52;;;;;;;;;;;11.60;99.90;;;;;;5091757;28;19973;-79
2022/01/01 11:36:19;;;;;;;;;;;11.60;99.90;;;;;;5116659;27;19963;-79
2022/01/01 11:38:46;;;;;;;;;;;11.80;99.90;;;;;;5119749;27;20491;-79
2022/01/01 11:41:17;;;;;;;;;;;11.80;99.90;;;;;;5104674;28;19920;-79
2022/01/01 11:43:46;;;;;;;;;;;11.90;99.90;;;;;;5095095;28;20659;-79
2022/01/01 11:46:18;;;;;;;;;;;12.00;99.90;;;;;;5107599;28;19920;-79
2022/01/01 11:48:55;;;;;;;;;;;12.00;99.90;;;;;;5109175;28;20018;-79
2022/01/01 11:51:23;;;;;;;;;;;12.00;99.90;;;;;;5115499;28;20014;-78
2022/01/01 11:54:05;;;;;;;;;;;12.10;99.90;;;;;;5106977;28;19930;-79
2022/01/01 11:56:53;;;;;;;;;;;12.00;99.90;;;;;;5100182;28;19920;-79
2022/01/01 11:59:21;;;;;;;;;;;12.00;99.90;;;;;;5106645;28;19924;-78
2022/01/01 12:01:49;;;;;;;;;;;12.00;99.90;;;;;;5104327;28;20006;-79
2022/01/01 12:04:22;;;;;;;;;;;12.00;99.90;;;;;;5106814;28;19931;-79
2022/01/01 12:06:54;;;;;;;;;;;12.10;99.90;;;;;;5097847;28;20051;-79
2022/01/01 12:09:22;;;;;;;;;;;12.10;99.90;;;;;;5106081;27;19924;-79
2022/01/01 12:11:56;;;;;;;;;;;12.20;99.90;;;;;;5095446;27;19924;-79
2022/01/01 12:14:28;;;;;;;;;;;12.20;99.90;;;;;;5101203;28;19920;-78
2022/01/01 12:16:56;;;;;;;;;;;12.30;99.90;;;;;;5103365;28;19930;-79
2022/01/01 12:19:24;;;;;;;;;;;12.40;99.90;;;;;;5107392;27;19927;-79
2022/01/01 12:22:10;;;;;;;;;;;12.50;99.90;;;;;;5094474;28;19933;-79
2022/01/01 12:24:39;;;;;;;;;;;12.50;99.90;;;;;;5106788;28;20355;-79
2022/01/01 12:27:13;;;;;;;;;;;12.60;99.90;;;;;;5101092;28;19926;-79
2022/01/01 12:29:40;;;;;;;;;;;12.60;99.90;;;;;;5105089;27;20447;-79
2022/01/01 12:32:08;;;;;;;;;;;12.50;99.90;;;;;;5101071;28;20378;-79
2022/01/01 12:34:36;;;;;;;;;;;12.90;99.90;;;;;;5110311;27;19920;-78
2022/01/01 12:37:04;;;;;;;;;;;13.50;99.90;;;;;;5107923;28;20274;-78
2022/01/01 12:39:51;;;;;;;;;;;13.70;99.90;;;;;;5103022;27;19923;-78
2022/01/01 12:42:28;;;;;;;;;;;13.90;99.90;;;;;;5108860;28;20289;-79
2022/01/01 12:44:57;;;;;;;;;;;13.60;99.90;;;;;;5103695;28;20010;-78
2022/01/01 12:47:30;;;;;;;;;;;13.60;99.90;;;;;;5105226;28;19920;-79
2022/01/01 12:50:05;;;;;;;;;;;13.70;99.90;;;;;;5096545;28;19952;-79
2022/01/01 12:52:34;;;;;;;;;;;13.70;99.90;;;;;;5098633;28;19975;-79
2022/01/01 12:55:00;;;;;;;;;;;13.70;99.90;;;;;;5101516;28;19999;-79
2022/01/01 12:57:32;;;;;;;;;;;13.90;99.90;;;;;;5094367;28;19928;-79
2022/01/01 13:00:19;;;;;;;;;;;14.20;99.90;;;;;;5106571;28;19922;-79
2022/01/01 13:02:57;;;;;;;;;;;14.50;99.90;;;;;;5109753;28;20275;-79
2022/01/01 13:05:25;;;;;;;;;;;14.70;99.90;;;;;;5102023;28;19920;-79
2022/01/01 13:07:52;;;;;;;;;;;14.90;99.90;;;;;;5099513;28;19923;-79
2022/01/01 13:10:19;;;;;;;;;;;15.00;99.90;;;;;;5102028;28;20275;-79
2022/01/01 13:12:48;;;;;;;;;;;15.30;99.90;;;;;;5108544;28;19919;-79
2022/01/01 13:15:15;;;;;;;;;;;15.70;99.90;;;;;;5109892;28;19919;-79
2022/01/01 13:17:49;;;;;;;;;;;16.10;99.90;;;;;;5108276;27;19926;-79
2022/01/01 13:20:16;;;;;;;;;;;16.50;99.90;;;;;;5109479;28;19923;-79
2022/01/01 13:22:43;;;;;;;;;;;16.60;99.90;;;;;;5102079;27;19973;-79
2022/01/01 13:25:10;;;;;;;;;;;16.60;99.90;;;;;;5104805;27;19920;-79
2022/01/01 13:27:38;;;;;;;;;;;16.40;99.90;;;;;;5101278;27;20007;-78
2022/01/01 13:30:08;;;;;;;;;;;16.30;99.90;;;;;;5091630;28;19919;-79
2022/01/01 13:32:35;;;;;;;;;;;16.10;99.90;;;;;;5093238;28;19923;-79
2022/01/01 13:35:02;;;;;;;;;;;15.70;99.90;;;;;;5107433;27;19946;-78
2022/01/01 13:37:28;;;;;;;;;;;15.40;99.90;;;;;;5102583;28;19919;-79
2022/01/01 13:39:58;;;;;;;;;;;14.90;99.90;;;;;;5106775;28;19934;-78
2022/01/01 13:42:24;;;;;;;;;;;14.50;99.90;;;;;;5097994;28;19920;-78
2022/01/01 13:44:51;;;;;;;;;;;14.10;99.90;;;;;;5101145;28;19930;-78
2022/01/01 13:47:28;;;;;;;;;;;13.80;99.90;;;;;;5108017;28;19963;-78
2022/01/01 13:49:55;;;;;;;;;;;13.60;99.90;;;;;;5105748;28;19942;-78
2022/01/01 13:52:23;;;;;;;;;;;13.40;99.90;;;;;;5105801;28;20000;-78
2022/01/01 13:54:58;;;;;;;;;;;13.50;99.90;;;;;;5104406;28;19928;-78
2022/01/01 13:57:28;;;;;;;;;;;13.50;99.90;;;;;;5093078;28;19920;-78
2022/01/01 13:59:56;;;;;;;;;;;13.50;99.90;;;;;;5096259;28;19920;-78
2022/01/01 14:02:23;;;;;;;;;;;13.50;99.90;;;;;;5102318;28;19920;-78
2022/01/01 14:04:55;;;;;;;;;;;13.40;99.90;;;;;;5106762;27;19920;-78
2022/01/01 14:07:21;;;;;;;;;;;13.40;99.90;;;;;;5096744;28;20392;-78
2022/01/01 14:10:05;;;;;;;;;;;13.40;99.90;;;;;;5104080;28;20460;-78
2022/01/01 14:12:40;;;;;;;;;;;13.30;99.90;;;;;;5098910;28;19971;-78
2022/01/01 14:15:12;;;;;;;;;;;13.20;99.90;;;;;;5106187;27;19926;-78
2022/01/01 14:17:55;;;;;;;;;;;13.00;99.90;;;;;;5097093;28;20002;-78
2022/01/01 14:20:29;;;;;;;;;;;13.10;99.90;;;;;;5100040;28;20271;-79
2022/01/01 14:22:56;;;;;;;;;;;13.00;99.90;;;;;;5105329;28;19919;-78
2022/01/01 14:25:26;;;;;;;;;;;12.90;99.90;;;;;;5094687;28;19924;-78
2022/01/01 14:28:01;;;;;;;;;;;12.80;99.90;;;;;;5091537;28;19955;-78
2022/01/01 14:30:28;;;;;;;;;;;12.70;99.90;;;;;;5093108;28;19971;-78
2022/01/01 14:32:57;;;;;;;;;;;12.50;99.90;;;;;;5098445;28;20374;-80
2022/01/01 14:35:27;;;;;;;;;;;12.20;99.90;;;;;;5102692;28;19965;-78
2022/01/01 14:37:55;;;;;;;;;;;12.10;99.90;;;;;;5107016;28;20460;-76
2022/01/01 14:40:22;;;;;;;;;;;11.90;99.90;;;;;;5101818;28;19924;-77
2022/01/01 14:42:48;;;;;;;;;;;11.70;99.90;;;;;;5109333;28;19924;-77